createdAt,value
2022-08-25T01:43:13.609Z,6.78
2022-08-25T01:45:51.611Z,7.85
2022-08-25T01:48:29.376Z,7.63
2022-08-25T01:51:14.456Z,7.10
2022-08-25T01:54:12.960Z,7.05
2022-08-25T01:56:44.807Z,7.05
2022-08-25T01:59:24.988Z,6.43
2022-08-25T02:04:42.513Z,8.38
2022-08-25T02:07:29.149Z,8.75
2022-08-25T02:10:05.778Z,6.70
2022-08-25T02:12:42.463Z,6.57
2022-08-25T02:15:20.751Z,10.80
2022-08-25T02:17:57.320Z,7.60
2022-08-25T02:26:14.182Z,8.57
2022-08-25T02:28:52.171Z,6.75
2022-08-25T02:31:37.982Z,6.97
2022-08-25T02:34:17.763Z,6.40
2022-08-25T02:36:54.355Z,6.88
2022-08-25T02:39:29.138Z,7.82
2022-08-25T02:42:05.752Z,8.27
2022-08-25T02:44:43.930Z,8.43
2022-08-25T02:47:20.343Z,6.55
2022-08-25T03:11:47.391Z,7.95
2022-08-25T03:14:24.189Z,7.85
2022-08-25T03:19:42.125Z,7.88
2022-08-25T03:22:19.477Z,8.68
2022-08-25T03:25:23.889Z,7.35
2022-08-25T03:28:08.946Z,9.13
2022-08-25T03:30:45.038Z,10.00
2022-08-25T03:33:14.765Z,7.35
2022-08-25T03:35:47.754Z,7.18
2022-08-25T03:38:28.313Z,8.90
2022-08-25T03:41:02.118Z,9.75
2022-08-25T03:43:37.969Z,10.20
2022-08-25T03:46:10.702Z,8.98
2022-08-25T03:51:32.414Z,9.07
2022-08-25T03:54:06.096Z,11.52
2022-08-25T03:56:47.400Z,10.82
2022-08-25T03:59:29.951Z,9.70
2022-08-25T04:04:36.689Z,9.40
2022-08-25T04:07:18.283Z,9.00
2022-08-25T04:09:56.876Z,11.70
2022-08-25T04:12:32.077Z,9.20
2022-08-25T04:15:14.398Z,9.48
2022-08-25T04:17:48.147Z,11.43
2022-08-25T04:20:24.268Z,10.15
2022-08-25T04:22:59.992Z,12.52
2022-08-25T04:25:33.464Z,11.13
2022-08-25T04:28:07.227Z,10.38
2022-08-25T04:30:52.028Z,11.23
2022-08-25T04:33:28.517Z,10.75
2022-08-25T04:36:02.486Z,8.98
2022-08-25T04:38:30.808Z,11.57
2022-08-25T04:40:58.979Z,10.75
2022-08-25T04:43:27.095Z,10.73
2022-08-25T04:45:56.077Z,12.00
2022-08-25T04:48:24.041Z,13.15
2022-08-25T04:50:51.616Z,10.98
2022-08-25T04:53:21.558Z,12.27
2022-08-25T04:55:49.767Z,14.77
2022-08-25T04:58:18.024Z,12.00
2022-08-25T05:00:46.680Z,12.25
2022-08-25T05:03:15.652Z,13.70
2022-08-25T05:05:43.188Z,11.45
2022-08-25T05:08:11.053Z,14.70
2022-08-25T05:10:40.797Z,13.90
2022-08-25T05:13:09.927Z,11.48
2022-08-25T05:15:52.712Z,14.10
2022-08-25T05:18:23.770Z,16.42
2022-08-25T05:20:53.749Z,12.98
2022-08-25T05:23:22.295Z,13.63
2022-08-25T05:25:50.964Z,15.57
2022-08-25T05:28:19.317Z,11.88
2022-08-25T05:30:48.658Z,10.68
2022-08-25T05:33:17.180Z,11.77
2022-08-25T05:35:46.109Z,11.18
2022-08-25T05:38:15.420Z,13.38
2022-08-25T05:40:43.225Z,13.73
2022-08-25T05:43:10.862Z,15.63
2022-08-25T05:45:39.283Z,12.82
2022-08-25T05:48:07.118Z,11.40
2022-08-25T05:50:34.740Z,12.60
2022-08-25T05:53:03.616Z,12.95
2022-08-25T05:55:31.226Z,12.98
2022-08-25T05:57:58.876Z,13.40
2022-08-25T06:00:26.409Z,13.52
2022-08-25T06:02:52.963Z,12.07
2022-08-25T06:05:23.047Z,12.90
2022-08-25T06:07:52.749Z,13.65
2022-08-25T06:10:22.302Z,12.43
2022-08-25T06:12:50.200Z,12.95
2022-08-25T06:15:20.214Z,12.68
2022-08-25T06:17:48.531Z,12.93
2022-08-25T06:20:18.138Z,11.93
2022-08-25T06:22:46.162Z,13.93
2022-08-25T06:25:17.479Z,12.18
2022-08-25T06:27:46.459Z,14.45
2022-08-25T06:30:20.217Z,10.20
2022-08-25T06:32:52.408Z,11.70
2022-08-25T06:35:20.873Z,11.50
2022-08-25T06:37:48.530Z,12.05
2022-08-25T06:40:16.968Z,11.15
2022-08-25T06:42:48.846Z,9.95
2022-08-25T06:45:16.604Z,11.07
2022-08-25T06:47:45.642Z,11.52
2022-08-25T06:50:16.413Z,14.40
2022-08-25T06:52:43.987Z,12.63
2022-08-25T06:55:12.178Z,11.13
2022-08-25T06:57:39.802Z,10.10
2022-08-25T07:00:10.864Z,7.82
2022-08-25T07:02:40.111Z,11.70
2022-08-25T07:05:13.201Z,9.43
2022-08-25T07:07:43.235Z,13.65
2022-08-25T07:12:53.591Z,7.32
2022-08-25T07:15:22.634Z,7.53
2022-08-25T07:18:17.493Z,7.55
2022-08-25T07:20:48.315Z,6.20
2022-08-25T07:23:37.272Z,7.78
2022-08-25T07:26:27.098Z,7.70
2022-08-25T07:29:09.433Z,7.30
2022-08-25T07:31:39.158Z,8.48
2022-08-25T07:34:26.292Z,7.05
2022-08-25T07:50:54.745Z,7.78
2022-08-25T08:13:28.515Z,6.32
2022-08-25T08:15:57.668Z,7.13
2022-08-25T08:19:00.828Z,6.40
2022-08-25T08:21:42.205Z,7.50
2022-08-25T08:24:19.724Z,7.83
2022-08-25T08:27:22.316Z,6.70
2022-08-25T09:13:37.218Z,9.45
2022-08-25T09:16:34.418Z,6.55
2022-08-25T09:19:21.356Z,8.43
2022-08-25T09:21:58.134Z,6.85
2022-08-25T09:24:41.960Z,4.78
2022-08-25T09:27:18.338Z,5.43
2022-08-25T09:35:53.764Z,5.88
2022-08-25T09:43:44.258Z,5.10
2022-08-25T10:29:50.032Z,5.80
2022-08-25T10:45:48.487Z,5.35
2022-08-25T10:48:44.095Z,3.92
2022-08-25T10:51:31.292Z,5.43
2022-08-25T10:54:07.881Z,5.13
2022-08-25T10:56:40.941Z,4.78
2022-08-25T10:59:22.368Z,5.20
2022-08-25T11:02:11.336Z,4.65
2022-08-25T11:04:45.060Z,5.40
2022-08-25T11:07:24.213Z,5.65
2022-08-25T11:09:55.117Z,4.15
2022-08-25T11:12:31.131Z,7.43
2022-08-25T11:15:02.250Z,6.38
2022-08-25T11:17:42.599Z,3.83
2022-08-25T11:20:19.155Z,4.25
2022-08-25T11:22:52.438Z,5.95
2022-08-25T11:25:25.936Z,3.72
2022-08-25T11:27:59.179Z,5.50
2022-08-25T11:30:29.040Z,7.63
2022-08-25T11:32:58.322Z,5.70
2022-08-25T11:35:30.050Z,4.47
2022-08-25T11:38:15.579Z,5.55
2022-08-25T11:40:55.601Z,7.47
2022-08-25T11:43:54.607Z,6.28
2022-08-25T11:46:33.370Z,8.23
2022-08-25T11:49:26.625Z,4.90
2022-08-25T11:51:54.372Z,3.90
2022-08-25T11:54:26.419Z,5.57
2022-08-25T11:57:02.227Z,4.50
2022-08-25T12:00:02.603Z,3.60
2022-08-25T12:02:34.543Z,7.50
2022-08-25T12:05:04.643Z,7.38
2022-08-25T12:08:18.822Z,6.70
2022-08-25T12:11:10.598Z,4.15
2022-08-25T12:13:45.133Z,4.10
2022-08-25T12:16:43.582Z,9.60
2022-08-25T12:19:26.651Z,3.72
2022-08-25T12:21:59.794Z,4.00
2022-08-25T12:24:51.937Z,4.28
2022-08-25T12:27:28.641Z,3.85
2022-08-25T12:30:05.224Z,6.65
2022-08-25T12:33:05.554Z,6.13
2022-08-25T12:35:38.451Z,5.65
2022-08-25T12:38:13.725Z,6.20
2022-08-25T12:40:59.293Z,9.40
2022-08-25T12:43:33.224Z,5.03
2022-08-25T12:46:34.224Z,15.45
2022-08-25T12:49:03.681Z,4.07
2022-08-25T12:51:50.555Z,4.78
2022-08-25T12:54:25.292Z,3.47
2022-08-25T12:56:57.247Z,3.60
2022-08-25T12:59:34.474Z,3.90
2022-08-25T13:02:30.301Z,3.90
2022-08-25T13:05:17.698Z,4.70
2022-08-25T13:08:00.859Z,4.95
2022-08-25T13:10:43.396Z,3.75
2022-08-25T13:13:20.543Z,5.65
2022-08-25T13:15:59.674Z,3.92
2022-08-25T13:18:29.810Z,3.63
2022-08-25T13:21:06.640Z,4.97
2022-08-25T13:23:38.144Z,3.88
2022-08-25T13:26:07.621Z,4.93
2022-08-25T13:28:40.819Z,4.25
2022-08-25T13:33:38.353Z,4.13
2022-08-25T13:36:24.758Z,4.45
2022-08-25T13:38:52.407Z,4.10
2022-08-25T13:41:29.171Z,4.85
2022-08-25T13:44:00.837Z,4.07
2022-08-25T13:46:31.603Z,5.05
2022-08-25T13:49:05.219Z,4.22
2022-08-25T13:51:32.860Z,5.15
2022-08-25T13:54:03.162Z,3.53
2022-08-25T13:56:40.051Z,3.45
2022-08-25T13:59:21.439Z,4.20
2022-08-25T14:01:50.333Z,4.60
2022-08-25T14:04:25.563Z,6.40
2022-08-25T14:07:25.365Z,7.80
2022-08-25T14:09:56.888Z,6.25
2022-08-25T14:12:33.320Z,5.28
2022-08-25T14:15:05.400Z,3.97
2022-08-25T14:20:17.862Z,4.00
2022-08-25T14:22:45.519Z,4.13
2022-08-25T14:25:13.428Z,5.70
2022-08-25T14:28:06.527Z,6.53
2022-08-25T14:30:35.684Z,4.97
2022-08-25T14:33:04.966Z,7.07
2022-08-25T14:35:34.495Z,4.13
2022-08-25T14:38:08.390Z,6.10
2022-08-25T14:40:36.154Z,4.10
2022-08-25T14:43:05.397Z,7.72
2022-08-25T14:45:38.966Z,6.53
2022-08-25T14:48:10.174Z,4.07
2022-08-25T14:50:42.029Z,6.07
2022-08-25T14:53:11.041Z,5.05
2022-08-25T14:55:39.792Z,4.93
2022-08-25T14:58:09.723Z,4.07
2022-08-25T15:00:41.189Z,5.22
2022-08-25T15:03:09.013Z,3.50
2022-08-25T15:05:36.815Z,3.40
2022-08-25T15:08:22.805Z,6.55
2022-08-25T15:10:50.775Z,6.97
2022-08-25T15:13:19.755Z,5.40
2022-08-25T15:15:52.293Z,4.78
2022-08-25T15:18:21.542Z,5.10
2022-08-25T15:20:50.196Z,4.72
2022-08-25T15:23:18.359Z,6.28
2022-08-25T15:25:47.274Z,4.90
2022-08-25T15:28:17.414Z,5.35
2022-08-25T15:30:46.644Z,3.83
2022-08-25T15:33:14.241Z,6.65
2022-08-25T15:35:42.366Z,4.57
2022-08-25T15:38:11.085Z,3.97
2022-08-25T15:40:39.477Z,4.05
2022-08-25T15:43:07.322Z,4.32
2022-08-25T15:45:36.001Z,4.97
2022-08-25T15:48:06.926Z,6.97
2022-08-25T15:50:37.280Z,7.40
2022-08-25T15:53:08.435Z,4.63
2022-08-25T15:58:08.666Z,5.03
2022-08-25T16:00:36.803Z,4.72
2022-08-25T16:03:08.100Z,6.28
2022-08-25T16:05:36.417Z,5.95
2022-08-25T16:08:05.335Z,4.55
2022-08-25T16:10:35.243Z,7.00
2022-08-25T16:13:04.749Z,4.80
2022-08-25T16:15:33.595Z,4.65
2022-08-25T16:18:02.501Z,5.50
2022-08-25T16:20:36.513Z,5.70
2022-08-25T16:23:05.260Z,4.82
2022-08-25T16:25:33.152Z,5.72
2022-08-25T16:28:04.304Z,5.25
2022-08-25T16:30:31.856Z,4.47
2022-08-25T16:32:59.400Z,5.78
2022-08-25T16:35:29.347Z,7.18
2022-08-25T16:37:58.447Z,5.78
2022-08-25T16:40:28.716Z,6.03
2022-08-25T16:42:56.614Z,4.43
2022-08-25T16:45:24.647Z,5.65
2022-08-25T22:47:06.240Z,11.32
2022-08-25T22:49:35.322Z,14.98
2022-08-25T22:52:03.331Z,11.23
2022-08-25T22:54:30.845Z,12.68
2022-08-25T22:57:05.901Z,20.35
2022-08-25T22:59:34.810Z,16.80
2022-08-25T23:02:02.365Z,16.77
2022-08-25T23:04:31.310Z,13.63
2022-08-25T23:06:58.879Z,11.85
2022-08-25T23:09:26.639Z,15.20
2022-08-25T23:11:54.159Z,12.77
2022-08-25T23:14:21.789Z,13.07
2022-08-25T23:16:49.866Z,14.90
2022-08-25T23:19:18.056Z,14.50
2022-08-25T23:22:07.222Z,12.00
2022-08-25T23:24:34.766Z,19.27
2022-08-25T23:27:04.412Z,15.30
2022-08-25T23:29:34.110Z,15.45
2022-08-25T23:32:01.980Z,14.25
2022-08-25T23:34:30.516Z,15.07
2022-08-25T23:37:03.716Z,13.07
2022-08-25T23:39:31.402Z,17.92
2022-08-25T23:41:58.924Z,14.27
2022-08-25T23:44:27.475Z,10.95
2022-08-25T23:46:55.429Z,14.02
2022-08-25T23:49:25.807Z,13.45
2022-08-25T23:51:56.085Z,13.68
2022-08-25T23:54:30.927Z,13.48
2022-08-25T23:56:59.056Z,12.18
2022-08-25T23:59:26.632Z,14.80
